createdAt,value
2019-05-22T00:00:22.634Z,0.00
2019-05-22T00:01:22.566Z,0.00
2019-05-22T00:02:22.481Z,0.00
2019-05-22T00:03:22.404Z,0.00
2019-05-22T00:04:22.327Z,0.00
2019-05-22T00:05:22.251Z,0.00
2019-05-22T00:06:22.174Z,0.00
2019-05-22T00:07:22.097Z,0.00
2019-05-22T00:08:22.021Z,0.00
2019-05-22T00:09:21.944Z,0.00
2019-05-22T00:10:21.871Z,0.00
2019-05-22T00:11:21.790Z,0.00
2019-05-22T00:12:21.713Z,0.00
2019-05-22T00:13:21.636Z,0.00
2019-05-22T00:14:21.564Z,0.00
2019-05-22T00:15:21.493Z,0.00
2019-05-22T00:16:21.413Z,0.00
2019-05-22T00:17:21.333Z,0.00
2019-05-22T00:18:21.254Z,0.00
2019-05-22T00:19:21.178Z,0.00
2019-05-22T00:20:21.100Z,0.00
2019-05-22T00:21:21.025Z,0.00
2019-05-22T00:22:20.950Z,0.00
2019-05-22T00:23:20.873Z,0.00
2019-05-22T00:24:20.796Z,0.00
2019-05-22T00:25:20.718Z,0.00
2019-05-22T00:26:20.641Z,0.00
2019-05-22T00:27:20.567Z,0.00
2019-05-22T00:28:20.494Z,0.00
2019-05-22T00:29:20.410Z,0.00
2019-05-22T00:30:20.343Z,0.00
2019-05-22T00:31:20.263Z,0.00
2019-05-22T00:32:20.183Z,0.00
2019-05-22T00:33:20.103Z,0.00
2019-05-22T00:34:20.029Z,0.00
2019-05-22T00:35:19.952Z,0.00
2019-05-22T00:36:19.876Z,0.00
2019-05-22T00:37:19.799Z,0.00
2019-05-22T00:38:19.720Z,0.00
2019-05-22T00:39:19.645Z,0.00
2019-05-22T00:40:19.568Z,0.00
2019-05-22T00:41:19.491Z,0.00
2019-05-22T00:42:19.415Z,0.00
2019-05-22T00:43:19.339Z,0.00
2019-05-22T00:44:19.262Z,0.00
2019-05-22T00:45:19.230Z,0.00
2019-05-22T00:46:19.107Z,0.00
2019-05-22T00:47:19.032Z,0.00
2019-05-22T00:48:18.955Z,0.00
2019-05-22T00:49:18.881Z,0.00
2019-05-22T00:50:18.815Z,0.00
2019-05-22T00:51:18.726Z,0.00
2019-05-22T00:52:18.649Z,0.00
2019-05-22T00:53:18.571Z,0.00
2019-05-22T00:54:18.498Z,0.00
2019-05-22T00:55:18.435Z,0.00
2019-05-22T00:56:18.341Z,0.00
2019-05-22T00:57:18.265Z,0.00
2019-05-22T00:58:18.195Z,0.00
2019-05-22T00:59:18.112Z,0.00
2019-05-22T01:00:18.036Z,0.00
2019-05-22T01:01:18.026Z,0.00
2019-05-22T01:02:17.881Z,0.00
2019-05-22T01:03:17.804Z,0.00
2019-05-22T01:04:17.732Z,0.00
2019-05-22T01:05:17.652Z,0.00
2019-05-22T01:06:17.576Z,0.00
2019-05-22T01:07:17.572Z,0.00
2019-05-22T01:08:17.422Z,0.00
2019-05-22T01:09:17.345Z,0.00
2019-05-22T01:10:17.270Z,0.00
2019-05-22T01:11:17.191Z,0.00
2019-05-22T01:12:17.115Z,0.00
2019-05-22T01:13:17.039Z,0.00
2019-05-22T01:14:16.963Z,0.00
2019-05-22T01:15:16.893Z,0.00
2019-05-22T01:16:16.808Z,0.00
2019-05-22T01:17:16.730Z,0.00
2019-05-22T01:18:16.657Z,0.00
2019-05-22T01:19:16.582Z,0.00
2019-05-22T01:20:16.506Z,0.00
2019-05-22T01:21:16.426Z,0.00
2019-05-22T01:22:16.350Z,0.00
2019-05-22T01:23:16.273Z,0.00
2019-05-22T01:24:16.197Z,0.00
2019-05-22T01:25:16.301Z,0.00
2019-05-22T01:26:16.049Z,0.00
2019-05-22T01:27:15.968Z,0.00
2019-05-22T01:28:15.892Z,0.00
2019-05-22T01:29:15.815Z,0.00
2019-05-22T01:30:15.749Z,0.00
2019-05-22T01:31:15.682Z,0.00
2019-05-22T01:32:15.639Z,0.00
2019-05-22T01:33:15.509Z,0.00
2019-05-22T01:34:15.433Z,0.00
2019-05-22T01:35:15.387Z,0.00
2019-05-22T01:36:15.281Z,0.00
2019-05-22T01:37:15.205Z,0.00
2019-05-22T01:38:15.444Z,0.00
2019-05-22T01:39:15.052Z,0.00
2019-05-22T01:40:14.979Z,0.00
2019-05-22T01:41:14.900Z,0.00
2019-05-22T01:42:14.822Z,0.00
2019-05-22T01:43:14.747Z,0.00
2019-05-22T01:44:14.727Z,0.00
2019-05-22T01:45:14.593Z,0.00
2019-05-22T01:46:14.518Z,0.00
2019-05-22T01:47:14.443Z,0.00
2019-05-22T01:48:14.366Z,0.00
2019-05-22T01:49:14.389Z,0.00
2019-05-22T01:50:14.214Z,0.00
2019-05-22T01:51:14.137Z,0.00
2019-05-22T01:52:14.060Z,0.00
2019-05-22T01:53:13.983Z,0.00
2019-05-22T01:54:13.908Z,0.00
2019-05-22T01:55:13.831Z,0.00
2019-05-22T01:56:13.964Z,0.00
2019-05-22T01:57:13.677Z,0.00
2019-05-22T01:58:13.605Z,0.00
2019-05-22T01:59:13.528Z,0.00
2019-05-22T02:00:13.450Z,0.00
2019-05-22T02:01:13.373Z,0.00
2019-05-22T02:02:13.299Z,0.00
2019-05-22T02:03:13.221Z,0.00
2019-05-22T02:04:14.891Z,0.00
2019-05-22T02:05:13.070Z,0.00
2019-05-22T02:06:12.993Z,0.00
2019-05-22T02:07:12.918Z,0.00
2019-05-22T02:08:12.844Z,0.00
2019-05-22T02:09:12.768Z,0.00
2019-05-22T02:10:12.689Z,0.00
2019-05-22T02:11:12.616Z,0.00
2019-05-22T02:12:12.536Z,0.00
2019-05-22T02:13:12.457Z,0.00
2019-05-22T02:14:12.383Z,0.00
2019-05-22T02:15:12.307Z,0.00
2019-05-22T02:16:12.231Z,0.00
2019-05-22T02:17:12.157Z,0.00
2019-05-22T02:18:12.077Z,0.00
2019-05-22T02:19:12.004Z,0.00
2019-05-22T02:20:12.024Z,0.00
2019-05-22T02:21:11.848Z,0.00
2019-05-22T02:22:11.771Z,0.00
2019-05-22T02:23:11.696Z,0.00
2019-05-22T02:24:11.665Z,0.00
2019-05-22T02:25:12.237Z,0.00
2019-05-22T02:26:11.472Z,0.00
2019-05-22T02:27:11.388Z,0.00
2019-05-22T02:28:11.313Z,0.00
2019-05-22T02:29:11.236Z,0.00
2019-05-22T02:30:11.168Z,0.00
2019-05-22T02:31:11.087Z,0.00
2019-05-22T02:32:11.006Z,0.00
2019-05-22T02:33:10.956Z,0.00
2019-05-22T02:34:10.857Z,0.00
2019-05-22T02:35:10.777Z,0.00
2019-05-22T02:36:10.704Z,0.00
2019-05-22T02:37:10.631Z,0.00
2019-05-22T02:38:10.548Z,0.00
2019-05-22T02:39:10.511Z,0.00
2019-05-22T02:40:10.396Z,0.00
2019-05-22T02:41:14.198Z,0.00
2019-05-22T02:42:10.246Z,0.00
2019-05-22T02:43:10.167Z,0.00
2019-05-22T02:44:10.090Z,0.00
2019-05-22T02:45:10.012Z,0.00
2019-05-22T02:46:09.938Z,0.00
2019-05-22T02:47:18.995Z,0.00
2019-05-22T02:48:09.783Z,0.00
2019-05-22T02:49:09.706Z,0.00
2019-05-22T02:50:09.633Z,0.00
2019-05-22T02:51:09.560Z,0.00
2019-05-22T02:52:09.482Z,0.00
2019-05-22T02:53:09.403Z,0.00
2019-05-22T02:54:09.324Z,0.00
2019-05-22T02:55:09.249Z,0.00
2019-05-22T02:56:09.172Z,0.00
2019-05-22T02:57:09.095Z,0.00
2019-05-22T02:58:09.019Z,0.00
2019-05-22T02:59:08.988Z,0.00
2019-05-22T03:00:08.866Z,0.00
2019-05-22T03:01:08.792Z,0.00
2019-05-22T03:02:08.715Z,0.00
2019-05-22T03:03:08.640Z,0.00
2019-05-22T03:04:08.570Z,0.00
2019-05-22T03:05:08.487Z,0.00
2019-05-22T03:06:08.410Z,0.00
2019-05-22T03:07:08.334Z,0.00
2019-05-22T03:08:08.257Z,0.00
2019-05-22T03:09:08.179Z,0.00
2019-05-22T03:10:08.126Z,4.00
2019-05-22T03:11:08.029Z,4.00
2019-05-22T03:12:07.957Z,4.00
2019-05-22T03:13:07.881Z,4.00
2019-05-22T03:14:07.899Z,0.00
2019-05-22T03:15:07.726Z,4.00
2019-05-22T03:16:07.647Z,4.00
2019-05-22T03:17:07.573Z,4.00
2019-05-22T03:18:07.495Z,4.00
2019-05-22T03:19:09.190Z,4.00
2019-05-22T03:20:07.349Z,4.00
2019-05-22T03:21:07.268Z,8.00
2019-05-22T03:22:07.192Z,4.00
2019-05-22T03:23:07.123Z,4.00
2019-05-22T03:24:07.040Z,4.00
2019-05-22T03:25:07.008Z,8.00
2019-05-22T03:26:06.887Z,8.00
2019-05-22T03:27:06.810Z,8.00
2019-05-22T03:28:06.733Z,8.00
2019-05-22T03:29:06.686Z,12.00
2019-05-22T03:30:06.582Z,8.00
2019-05-22T03:31:06.506Z,12.00
2019-05-22T03:32:06.456Z,12.00
2019-05-22T03:33:06.398Z,16.00
2019-05-22T03:34:06.278Z,12.00
2019-05-22T03:35:06.204Z,16.00
2019-05-22T03:36:06.226Z,16.00
2019-05-22T03:37:06.048Z,20.00
2019-05-22T03:38:05.978Z,24.00
2019-05-22T03:39:05.898Z,24.00
2019-05-22T03:40:05.822Z,24.00
2019-05-22T03:41:05.747Z,28.00
2019-05-22T03:42:05.670Z,28.00
2019-05-22T03:43:05.596Z,28.00
2019-05-22T03:44:05.517Z,32.00
2019-05-22T03:45:05.442Z,32.00
2019-05-22T03:46:05.469Z,36.00
2019-05-22T03:47:05.289Z,40.00
2019-05-22T03:48:05.214Z,44.00
2019-05-22T03:49:05.139Z,44.00
2019-05-22T03:50:05.062Z,44.00
2019-05-22T03:51:05.088Z,44.00
2019-05-22T03:52:04.911Z,48.00
2019-05-22T03:53:04.834Z,52.00
2019-05-22T03:54:04.760Z,52.00
2019-05-22T03:55:04.683Z,52.00
2019-05-22T03:56:04.607Z,52.00
2019-05-22T03:57:04.531Z,52.00
2019-05-22T03:58:04.457Z,60.00
2019-05-22T03:59:04.380Z,64.00
2019-05-22T04:00:04.310Z,64.00
2019-05-22T04:01:04.245Z,64.00
2019-05-22T04:02:04.157Z,72.00
2019-05-22T04:03:04.077Z,72.00
2019-05-22T04:04:04.002Z,72.00
2019-05-22T04:05:03.927Z,76.00
2019-05-22T04:06:03.850Z,76.00
2019-05-22T04:07:03.785Z,80.00
2019-05-22T04:08:03.800Z,76.00
2019-05-22T04:09:03.623Z,76.00
2019-05-22T04:10:03.548Z,76.00
2019-05-22T04:11:03.512Z,84.00
2019-05-22T04:12:03.400Z,92.00
2019-05-22T04:13:03.326Z,96.00
2019-05-22T04:14:03.250Z,100.00
2019-05-22T04:15:03.195Z,104.00
2019-05-22T04:16:03.134Z,108.00
2019-05-22T04:17:03.028Z,108.00
2019-05-22T04:18:02.941Z,108.00
2019-05-22T04:19:02.866Z,112.00
2019-05-22T04:20:02.822Z,116.00
2019-05-22T04:21:02.713Z,120.00
2019-05-22T04:22:02.725Z,136.00
2019-05-22T04:23:02.565Z,144.00
2019-05-22T04:24:02.487Z,152.00
2019-05-22T04:25:02.422Z,168.00
2019-05-22T04:26:02.349Z,180.00
2019-05-22T04:27:02.264Z,196.00
2019-05-22T04:28:02.185Z,200.00
2019-05-22T04:29:02.109Z,200.00
2019-05-22T04:30:02.038Z,196.00
2019-05-22T04:31:01.963Z,200.00
2019-05-22T04:32:01.884Z,196.00
2019-05-22T04:33:01.806Z,204.00
2019-05-22T04:34:01.735Z,216.00
2019-05-22T04:35:01.662Z,220.00
2019-05-22T04:36:01.586Z,224.00
2019-05-22T04:37:01.504Z,232.00
2019-05-22T04:38:01.430Z,228.00
2019-05-22T04:39:01.353Z,240.00
2019-05-22T04:40:01.305Z,252.00
2019-05-22T04:41:01.200Z,264.00
2019-05-22T04:42:01.128Z,276.00
2019-05-22T04:43:01.051Z,312.00
2019-05-22T04:44:00.985Z,340.00
2019-05-22T04:45:00.897Z,392.00
2019-05-22T04:46:00.825Z,412.00
2019-05-22T04:47:00.748Z,436.00
2019-05-22T04:48:00.685Z,444.00
2019-05-22T04:49:00.595Z,496.00
2019-05-22T04:50:07.498Z,528.00
2019-05-22T04:51:00.445Z,556.00
2019-05-22T04:52:00.374Z,516.00
2019-05-22T04:53:00.294Z,496.00
2019-05-22T04:54:00.216Z,504.00
2019-05-22T04:55:00.143Z,544.00
2019-05-22T04:56:00.069Z,516.00
2019-05-22T04:56:59.995Z,500.00
2019-05-22T04:57:59.921Z,504.00
2019-05-22T04:58:59.841Z,480.00
2019-05-22T04:59:59.766Z,444.00
2019-05-22T05:00:59.690Z,432.00
2019-05-22T05:01:59.614Z,436.00
2019-05-22T05:02:59.552Z,404.00
2019-05-22T05:03:59.463Z,424.00
2019-05-22T05:04:59.386Z,436.00
2019-05-22T05:05:59.314Z,448.00
2019-05-22T05:06:59.241Z,424.00
2019-05-22T05:07:59.172Z,424.00
2019-05-22T05:08:59.085Z,432.00
2019-05-22T05:09:59.010Z,436.00
2019-05-22T05:10:58.933Z,448.00
2019-05-22T05:11:58.858Z,476.00
2019-05-22T05:12:58.787Z,512.00
2019-05-22T05:13:58.706Z,520.00
2019-05-22T05:14:58.631Z,568.00
2019-05-22T05:15:58.554Z,580.00
2019-05-22T05:16:58.482Z,580.00
2019-05-22T05:17:58.401Z,584.00
2019-05-22T05:18:58.327Z,568.00
2019-05-22T05:19:58.251Z,564.00
2019-05-22T05:20:58.177Z,540.00
2019-05-22T05:21:58.100Z,536.00
2019-05-22T05:22:58.073Z,524.00
2019-05-22T05:23:57.947Z,504.00
2019-05-22T05:24:57.905Z,524.00
2019-05-22T05:25:57.795Z,528.00
2019-05-22T05:26:57.719Z,532.00
2019-05-22T05:27:57.644Z,512.00
2019-05-22T05:28:57.568Z,508.00
2019-05-22T05:29:57.504Z,532.00
2019-05-22T05:30:57.421Z,520.00
2019-05-22T05:31:57.341Z,544.00
2019-05-22T05:32:57.263Z,548.00
2019-05-22T05:33:57.190Z,540.00
2019-05-22T05:34:57.114Z,544.00
2019-05-22T05:35:57.036Z,560.00
2019-05-22T05:36:56.960Z,600.00
2019-05-22T05:37:56.885Z,616.00
2019-05-22T05:38:56.812Z,640.00
2019-05-22T05:39:56.733Z,692.00
2019-05-22T05:40:56.656Z,744.00
2019-05-22T05:41:56.584Z,756.00
2019-05-22T05:42:56.503Z,784.00
2019-05-22T05:43:56.429Z,792.00
2019-05-22T05:44:56.357Z,772.00
2019-05-22T05:45:56.278Z,760.00
2019-05-22T05:46:56.200Z,808.00
2019-05-22T05:47:56.127Z,824.00
2019-05-22T05:48:56.045Z,984.00
2019-05-22T05:49:55.977Z,964.00
2019-05-22T05:50:55.894Z,904.00
2019-05-22T05:51:55.818Z,924.00
2019-05-22T05:52:55.742Z,892.00
2019-05-22T05:53:55.666Z,844.00
2019-05-22T05:54:55.589Z,808.00
2019-05-22T05:55:55.512Z,840.00
2019-05-22T05:56:55.442Z,836.00
2019-05-22T05:57:55.383Z,892.00
2019-05-22T05:58:55.285Z,876.00
2019-05-22T05:59:55.209Z,952.00
2019-05-22T06:00:55.134Z,812.00
2019-05-22T06:01:55.059Z,848.00
2019-05-22T06:02:56.765Z,932.00
2019-05-22T06:03:54.904Z,1064.00
2019-05-22T06:04:54.827Z,952.00
2019-05-22T06:05:54.751Z,972.00
2019-05-22T06:06:54.674Z,924.00
2019-05-22T06:07:54.603Z,864.00
2019-05-22T06:08:54.522Z,792.00
2019-05-22T06:09:54.448Z,860.00
2019-05-22T06:10:54.369Z,832.00
2019-05-22T06:11:54.296Z,788.00
2019-05-22T06:12:54.218Z,836.00
2019-05-22T06:13:54.141Z,864.00
2019-05-22T06:14:54.064Z,1028.00
2019-05-22T06:15:53.989Z,952.00
2019-05-22T06:16:53.911Z,1072.00
2019-05-22T06:17:53.899Z,1128.00
2019-05-22T06:18:56.973Z,1132.00
2019-05-22T06:19:53.685Z,1100.00
2019-05-22T06:21:03.214Z,1284.00
2019-05-22T06:21:53.531Z,1252.00
2019-05-22T06:22:53.455Z,1232.00
2019-05-22T06:23:53.382Z,1100.00
2019-05-22T06:24:53.305Z,1212.00
2019-05-22T06:25:53.226Z,1108.00
2019-05-22T06:26:53.151Z,984.00
2019-05-22T06:27:53.075Z,1020.00
2019-05-22T06:28:52.999Z,1020.00
2019-05-22T06:29:52.939Z,1052.00
2019-05-22T06:30:52.847Z,1120.00
2019-05-22T06:31:52.768Z,1216.00
2019-05-22T06:32:52.695Z,1088.00
2019-05-22T06:33:52.618Z,948.00
2019-05-22T06:34:52.541Z,940.00
2019-05-22T06:35:52.465Z,1036.00
2019-05-22T06:36:52.388Z,1144.00
2019-05-22T06:37:52.313Z,1200.00
2019-05-22T06:38:52.236Z,1100.00
2019-05-22T06:39:52.159Z,1108.00
2019-05-22T06:40:52.084Z,1240.00
2019-05-22T06:41:52.006Z,1196.00
2019-05-22T06:42:51.930Z,1132.00
2019-05-22T06:43:51.854Z,1096.00
2019-05-22T06:44:51.800Z,1168.00
2019-05-22T06:45:51.702Z,1164.00
2019-05-22T06:46:51.658Z,1148.00
2019-05-22T06:47:51.552Z,1004.00
2019-05-22T06:48:51.474Z,1112.00
2019-05-22T06:49:51.399Z,1220.00
2019-05-22T06:50:51.348Z,1240.00
2019-05-22T06:51:51.278Z,1216.00
2019-05-22T06:52:51.168Z,1216.00
2019-05-22T06:53:51.093Z,1084.00
2019-05-22T06:54:51.036Z,1116.00
2019-05-22T06:55:50.944Z,1316.00
2019-05-22T06:56:50.868Z,1568.00
2019-05-22T06:57:50.789Z,1300.00
2019-05-22T06:58:50.712Z,1316.00
2019-05-22T07:00:10.846Z,1280.00
2019-05-22T07:00:50.559Z,1292.00
2019-05-22T07:01:50.483Z,1268.00
2019-05-22T07:02:50.414Z,1172.00
2019-05-22T07:03:50.334Z,1164.00
2019-05-22T07:04:50.432Z,1232.00
2019-05-22T07:05:50.180Z,1184.00
2019-05-22T07:06:50.104Z,1392.00
2019-05-22T07:07:50.028Z,1424.00
2019-05-22T07:08:49.951Z,1444.00
2019-05-22T07:09:49.880Z,1624.00
2019-05-22T07:10:49.808Z,1708.00
2019-05-22T07:11:49.736Z,1896.00
2019-05-22T07:12:51.020Z,1892.00
2019-05-22T07:13:49.585Z,1708.00
2019-05-22T07:14:49.497Z,1648.00
2019-05-22T07:15:49.419Z,1720.00
2019-05-22T07:16:49.341Z,2032.00
2019-05-22T07:17:49.266Z,2160.00
2019-05-22T07:18:49.205Z,2192.00
2019-05-22T07:19:49.113Z,2116.00
2019-05-22T07:20:49.326Z,2116.00
2019-05-22T07:21:48.962Z,1996.00
2019-05-22T07:22:48.887Z,1964.00
2019-05-22T07:23:48.809Z,1952.00
2019-05-22T07:24:48.734Z,1976.00
2019-05-22T07:25:48.659Z,2032.00
2019-05-22T07:26:48.583Z,2300.00
2019-05-22T07:27:48.507Z,2300.00
2019-05-22T07:28:48.430Z,2360.00
2019-05-22T07:29:48.355Z,2440.00
2019-05-22T07:30:48.286Z,2352.00
2019-05-22T07:31:48.202Z,2572.00
2019-05-22T07:32:48.125Z,2424.00
2019-05-22T07:33:48.049Z,2336.00
2019-05-22T07:34:47.993Z,2468.00
2019-05-22T07:36:07.778Z,2460.00
2019-05-22T07:36:47.821Z,2432.00
2019-05-22T07:37:47.752Z,2300.00
2019-05-22T07:38:47.669Z,2384.00
2019-05-22T07:39:47.594Z,2504.00
2019-05-22T07:40:50.183Z,2540.00
2019-05-22T07:41:47.439Z,2692.00
2019-05-22T07:42:47.370Z,2728.00
2019-05-22T07:43:47.290Z,2708.00
2019-05-22T07:44:47.213Z,2668.00
2019-05-22T07:45:47.137Z,2652.00
2019-05-22T07:46:47.060Z,2660.00
2019-05-22T07:47:46.998Z,2636.00
2019-05-22T07:48:46.909Z,2636.00
2019-05-22T07:49:46.834Z,2632.00
2019-05-22T07:50:48.790Z,2600.00
2019-05-22T07:51:55.901Z,2756.00
2019-05-22T07:52:46.605Z,2560.00
2019-05-22T07:53:46.531Z,2528.00
2019-05-22T07:54:46.457Z,2600.00
2019-05-22T07:55:46.379Z,2896.00
2019-05-22T07:56:46.302Z,3024.00
2019-05-22T07:57:46.228Z,3104.00
2019-05-22T07:58:46.184Z,3120.00
2019-05-22T07:59:46.077Z,3140.00
2019-05-22T08:00:46.001Z,3148.00
2019-05-22T08:01:45.925Z,3204.00
2019-05-22T08:02:45.850Z,3312.00
2019-05-22T08:03:45.775Z,3528.00
2019-05-22T08:04:45.697Z,3772.00
2019-05-22T08:05:45.622Z,3940.00
2019-05-22T08:06:45.546Z,4084.00
2019-05-22T08:07:45.565Z,4256.00
2019-05-22T08:08:45.403Z,4736.00
2019-05-22T08:09:45.321Z,5360.00
2019-05-22T08:10:45.245Z,6000.00
2019-05-22T08:11:45.172Z,6648.00
2019-05-22T08:12:45.094Z,6936.00
2019-05-22T08:13:45.031Z,6960.00
2019-05-22T08:14:44.945Z,7264.00
2019-05-22T08:15:47.902Z,7460.00
2019-05-22T08:16:44.793Z,7288.00
2019-05-22T08:17:44.720Z,7316.00
2019-05-22T08:18:44.660Z,7360.00
2019-05-22T08:19:44.569Z,7556.00
2019-05-22T08:20:44.494Z,8312.00
2019-05-22T08:21:44.419Z,8920.00
2019-05-22T08:22:44.347Z,9404.00
2019-05-22T08:23:44.270Z,9680.00
2019-05-22T08:24:44.198Z,9848.00
2019-05-22T08:25:44.123Z,10224.00
2019-05-22T08:26:53.927Z,9416.00
2019-05-22T08:27:43.972Z,7904.00
2019-05-22T08:28:43.985Z,6292.00
2019-05-22T08:29:43.823Z,4504.00
2019-05-22T08:30:43.749Z,3380.00
2019-05-22T08:31:43.690Z,3004.00
2019-05-22T08:32:43.599Z,3068.00
2019-05-22T08:33:43.524Z,2948.00
2019-05-22T08:34:43.452Z,2928.00
2019-05-22T08:35:43.379Z,2900.00
2019-05-22T08:36:43.306Z,3080.00
2019-05-22T08:37:43.231Z,3184.00
2019-05-22T08:38:43.170Z,3480.00
2019-05-22T08:39:43.086Z,3460.00
2019-05-22T08:40:43.013Z,3300.00
2019-05-22T08:41:42.932Z,3128.00
2019-05-22T08:42:42.856Z,2944.00
2019-05-22T08:44:11.449Z,2640.00
2019-05-22T08:44:42.706Z,2600.00
2019-05-22T08:45:42.633Z,2772.00
2019-05-22T08:46:42.559Z,2984.00
2019-05-22T08:47:42.484Z,3340.00
2019-05-22T08:48:47.744Z,3904.00
2019-05-22T08:49:42.347Z,4176.00
2019-05-22T08:50:42.260Z,4136.00
2019-05-22T08:51:42.187Z,4204.00
2019-05-22T08:52:42.110Z,4324.00
2019-05-22T08:53:47.583Z,4072.00
2019-05-22T08:54:41.960Z,3556.00
2019-05-22T08:55:41.987Z,3260.00
2019-05-22T08:56:41.814Z,3404.00
2019-05-22T08:57:41.736Z,3416.00
2019-05-22T08:58:41.662Z,3244.00
2019-05-22T08:59:41.587Z,3064.00
2019-05-22T09:00:41.514Z,2784.00
2019-05-22T09:01:41.438Z,2588.00
2019-05-22T09:02:41.363Z,2544.00
2019-05-22T09:03:41.290Z,2628.00
2019-05-22T09:04:41.211Z,2444.00
2019-05-22T09:05:41.139Z,2636.00
2019-05-22T09:06:41.062Z,2952.00
2019-05-22T09:07:40.991Z,3016.00
2019-05-22T09:08:40.923Z,3396.00
2019-05-22T09:09:40.863Z,3828.00
2019-05-22T09:10:40.761Z,4340.00
2019-05-22T09:11:40.690Z,4592.00
2019-05-22T09:12:40.613Z,4952.00
2019-05-22T09:13:40.571Z,5240.00
2019-05-22T09:14:40.468Z,5300.00
2019-05-22T09:15:40.454Z,5080.00
2019-05-22T09:16:40.310Z,4464.00
2019-05-22T09:17:40.242Z,4296.00
2019-05-22T09:18:40.173Z,4536.00
2019-05-22T09:19:40.085Z,4540.00
2019-05-22T09:20:49.412Z,4044.00
2019-05-22T09:21:40.623Z,3380.00
2019-05-22T09:22:41.377Z,3112.00
2019-05-22T09:23:39.786Z,2876.00
2019-05-22T09:24:39.757Z,2328.00
2019-05-22T09:25:39.634Z,2156.00
2019-05-22T09:26:39.562Z,2508.00
2019-05-22T09:27:39.487Z,2468.00
2019-05-22T09:28:39.411Z,2412.00
2019-05-22T09:29:39.336Z,2600.00
2019-05-22T09:30:39.266Z,2952.00
2019-05-22T09:31:39.189Z,3412.00
2019-05-22T09:32:39.110Z,3112.00
2019-05-22T09:33:39.036Z,3148.00
2019-05-22T09:34:38.960Z,3036.00
2019-05-22T09:35:38.889Z,3528.00
2019-05-22T09:36:38.810Z,3376.00
2019-05-22T09:37:38.800Z,3108.00
2019-05-22T09:38:38.669Z,3348.00
2019-05-22T09:39:38.586Z,3412.00
2019-05-22T09:40:38.511Z,3216.00
2019-05-22T09:41:38.438Z,2952.00
2019-05-22T09:42:38.364Z,2668.00
2019-05-22T09:43:38.289Z,2932.00
2019-05-22T09:44:38.215Z,2984.00
2019-05-22T09:45:38.136Z,2964.00
2019-05-22T09:46:38.061Z,2868.00
2019-05-22T09:47:37.987Z,2728.00
2019-05-22T09:48:37.910Z,2588.00
2019-05-22T09:49:37.835Z,2544.00
2019-05-22T09:50:37.761Z,2736.00
2019-05-22T09:51:37.686Z,2900.00
2019-05-22T09:52:37.617Z,2944.00
2019-05-22T09:53:37.537Z,3168.00
2019-05-22T09:54:37.461Z,3164.00
2019-05-22T09:55:37.387Z,3524.00
2019-05-22T09:56:37.311Z,3404.00
2019-05-22T09:57:37.244Z,3152.00
2019-05-22T09:58:37.159Z,2948.00
2019-05-22T09:59:37.083Z,3064.00
2019-05-22T10:00:37.008Z,3012.00
2019-05-22T10:01:36.931Z,2844.00
2019-05-22T10:02:36.863Z,2832.00
2019-05-22T10:03:36.782Z,3008.00
2019-05-22T10:04:36.709Z,3204.00
2019-05-22T10:05:36.706Z,3500.00
2019-05-22T10:06:36.556Z,3412.00
2019-05-22T10:07:36.482Z,3764.00
2019-05-22T10:08:36.404Z,4016.00
2019-05-22T10:09:36.330Z,3792.00
2019-05-22T10:10:36.283Z,3948.00
2019-05-22T10:11:36.179Z,4012.00
2019-05-22T10:12:36.104Z,4256.00
2019-05-22T10:13:36.154Z,4392.00
2019-05-22T10:14:35.964Z,4576.00
2019-05-22T10:15:35.880Z,4916.00
2019-05-22T10:16:35.809Z,4704.00
2019-05-22T10:17:35.733Z,4716.00
2019-05-22T10:18:35.662Z,4600.00
2019-05-22T10:19:35.579Z,4512.00
2019-05-22T10:20:35.501Z,4412.00
2019-05-22T10:21:35.433Z,4468.00
2019-05-22T10:22:35.352Z,4656.00
2019-05-22T10:23:35.277Z,4748.00
2019-05-22T10:24:35.415Z,4744.00
2019-05-22T10:25:35.126Z,4592.00
2019-05-22T10:26:35.052Z,4364.00
2019-05-22T10:27:34.976Z,4364.00
2019-05-22T10:28:34.903Z,4560.00
2019-05-22T10:29:34.824Z,4996.00
2019-05-22T10:30:34.750Z,5008.00
2019-05-22T10:31:34.675Z,5108.00
2019-05-22T10:32:34.599Z,5256.00
2019-05-22T10:33:34.523Z,5244.00
2019-05-22T10:34:34.451Z,5088.00
2019-05-22T10:35:34.399Z,5588.00
2019-05-22T10:36:34.299Z,6456.00
2019-05-22T10:37:34.224Z,6820.00
2019-05-22T10:38:34.150Z,6968.00
2019-05-22T10:39:34.075Z,7216.00
2019-05-22T10:40:34.007Z,7576.00
2019-05-22T10:41:33.925Z,7804.00
2019-05-22T10:42:34.101Z,8024.00
2019-05-22T10:43:33.775Z,7972.00
2019-05-22T10:44:33.707Z,7836.00
2019-05-22T10:45:33.627Z,8064.00
2019-05-22T10:46:33.552Z,8796.00
2019-05-22T10:47:33.487Z,9472.00
2019-05-22T10:48:33.402Z,9884.00
2019-05-22T10:49:33.330Z,10612.00
2019-05-22T10:50:33.256Z,11052.00
2019-05-22T10:51:33.178Z,11404.00
2019-05-22T10:52:33.104Z,11356.00
2019-05-22T10:53:34.415Z,11652.00
2019-05-22T10:54:32.960Z,11752.00
2019-05-22T10:55:32.884Z,12764.00
2019-05-22T10:56:32.808Z,13100.00
2019-05-22T10:57:32.734Z,12912.00
2019-05-22T10:58:32.666Z,12420.00
2019-05-22T10:59:32.590Z,12472.00
2019-05-22T11:00:32.513Z,12360.00
2019-05-22T11:01:32.440Z,11664.00
2019-05-22T11:02:32.368Z,11180.00
2019-05-22T11:03:32.292Z,10744.00
2019-05-22T11:04:32.218Z,10388.00
2019-05-22T11:05:32.145Z,10372.00
2019-05-22T11:06:32.071Z,10704.00
2019-05-22T11:07:31.997Z,9468.00
2019-05-22T11:08:34.362Z,7816.00
2019-05-22T11:09:31.850Z,7348.00
2019-05-22T11:10:31.776Z,6724.00
2019-05-22T11:11:31.705Z,5980.00
2019-05-22T11:12:31.629Z,5844.00
2019-05-22T11:13:34.225Z,6404.00
2019-05-22T11:14:31.482Z,6380.00
2019-05-22T11:15:31.412Z,5488.00
2019-05-22T11:16:31.339Z,5204.00
2019-05-22T11:17:31.261Z,5132.00
2019-05-22T11:18:31.588Z,4916.00
2019-05-22T11:19:31.115Z,4256.00
2019-05-22T11:20:31.043Z,3900.00
2019-05-22T11:21:30.972Z,3732.00
2019-05-22T11:22:30.893Z,3816.00
2019-05-22T11:23:30.821Z,4616.00
2019-05-22T11:24:30.744Z,5820.00
2019-05-22T11:25:30.674Z,7024.00
2019-05-22T11:26:30.599Z,7404.00
2019-05-22T11:27:30.526Z,6688.00
2019-05-22T11:28:30.449Z,7336.00
2019-05-22T11:29:30.374Z,8312.00
2019-05-22T11:30:30.306Z,7488.00
2019-05-22T11:31:30.227Z,6544.00
2019-05-22T11:32:30.156Z,8560.00
2019-05-22T11:33:34.033Z,8764.00
2019-05-22T11:34:30.018Z,9664.00
2019-05-22T11:35:29.934Z,9368.00
2019-05-22T11:36:29.864Z,9724.00
2019-05-22T11:37:29.785Z,8824.00
2019-05-22T11:38:29.710Z,7756.00
2019-05-22T11:39:38.735Z,7592.00
2019-05-22T11:40:29.561Z,7092.00
2019-05-22T11:41:29.487Z,7936.00
2019-05-22T11:42:29.413Z,8968.00
2019-05-22T11:43:29.338Z,10096.00
2019-05-22T11:44:29.282Z,10428.00
2019-05-22T11:45:29.200Z,9940.00
2019-05-22T11:46:29.119Z,10568.00
2019-05-22T11:47:29.045Z,10764.00
2019-05-22T11:48:28.969Z,11212.00
2019-05-22T11:49:28.896Z,14264.00
2019-05-22T11:50:28.865Z,14572.00
2019-05-22T11:51:28.748Z,13176.00
2019-05-22T11:52:28.676Z,17280.00
2019-05-22T11:53:28.604Z,18912.00
2019-05-22T11:54:28.529Z,16672.00
2019-05-22T11:55:43.836Z,18272.00
2019-05-22T11:56:28.382Z,37920.00
2019-05-22T11:57:28.312Z,16640.00
2019-05-22T11:58:28.237Z,16896.00
2019-05-22T11:59:28.162Z,16384.00
2019-05-22T12:00:28.089Z,15492.00
2019-05-22T12:01:28.019Z,17984.00
2019-05-22T12:02:27.944Z,14888.00
2019-05-22T12:03:27.873Z,21888.00
2019-05-22T12:04:27.798Z,24064.00
2019-05-22T12:05:27.728Z,48480.00
2019-05-22T12:06:27.654Z,124320.00
2019-05-22T12:07:27.581Z,112896.00
2019-05-22T12:09:15.000Z,108448.00
2019-05-22T12:10:14.927Z,107968.00
2019-05-22T12:11:14.856Z,105760.00
2019-05-22T12:12:14.787Z,90112.00
2019-05-22T12:13:14.717Z,32608.00
2019-05-22T12:14:14.651Z,84416.00
2019-05-22T12:15:14.576Z,101600.00
2019-05-22T12:16:14.510Z,86720.00
2019-05-22T12:17:14.441Z,61216.00
2019-05-22T12:18:14.373Z,73024.00
2019-05-22T12:19:14.307Z,39776.00
2019-05-22T12:20:14.269Z,87072.00
2019-05-22T12:29:06.038Z,15804.00
2019-05-22T12:30:06.106Z,15560.00
2019-05-22T12:31:05.958Z,17984.00
2019-05-22T12:32:05.829Z,16640.00
2019-05-22T12:33:12.741Z,14268.00
2019-05-22T12:34:05.689Z,11668.00
2019-05-22T12:35:05.621Z,12356.00
2019-05-22T12:36:05.551Z,17952.00
2019-05-22T12:37:05.483Z,19200.00